KSTC/STC METAR and TAF weather

Enter ICAO airport designator
Station Type Date Time Source
KSTC METAR 2019/10/23 02:53 UTC NOAA

KSTC 230253Z 29014G23KT 10SM BKN031 OVC060 05/00 A2967 RMK AO2 SLP064 T00500000 53013


Station Type Date Time Source
KSTC Decoded METAR 2019/10/23 02:53 UTC NOAA

ST. CLOUD REGIONAL AIRPORT, MN, United States (KSTC) 45-33N 094-03W
Oct 22, 2019 - 10:53 PM EDT / 2019.10.23 0253 UTC
Wind: from the WNW (290 degrees) at 16 MPH (14 KT) gusting to 26 MPH (23 KT):0
Visibility: 10 mile(s):0
Sky conditions: overcast
Temperature: 41.0 F (5.0 C)
Dew Point: 32.0 F (0.0 C)
Relative Humidity: 70%
Pressure (altimeter): 29.67 in. Hg (1004 hPa)
Pressure tendency: 0.04 inches (1.3 hPa) higher than three hours ago
ob: KSTC 230253Z 29014G23KT 10SM BKN031 OVC060 05/00 A2967 RMK AO2 SLP064 T00500000 53013
cycle: 3

Station Type Date Time Source
KSTC TAF 2019/10/22 18:24 UTC NOAA

TAF KSTC 221722Z 2218/2318 29022G32KT P6SM VCSH BKN015 BKN020 OVC035
FM230000 29019G27KT P6SM BKN020 BKN035
FM230700 29010KT P6SM BKN050
FM231300 28007KT P6SM BKN025
FM231600 30007KT P6SM OVC018

Example: see airport list